createdAt,value
2019-01-28T10:18:20.187Z,3.30
2019-01-28T10:20:47.645Z,3.30
2019-01-28T10:23:14.531Z,3.40
2019-01-28T10:25:41.640Z,3.50
2019-01-28T10:28:08.790Z,3.60
2019-01-28T10:30:38.089Z,3.60
2019-01-28T10:33:05.794Z,3.60
2019-01-28T10:35:32.908Z,3.60
2019-01-28T10:38:00.155Z,3.50
2019-01-28T10:40:30.110Z,3.50
2019-01-28T10:42:57.116Z,3.50
2019-01-28T10:45:23.822Z,3.40
2019-01-28T10:47:50.908Z,3.30
2019-01-28T10:50:19.901Z,3.40
2019-01-28T11:00:13.562Z,3.30
2019-01-28T11:02:40.569Z,3.50
2019-01-28T11:05:07.413Z,3.60
2019-01-28T11:07:34.256Z,3.60
2019-01-28T11:10:01.453Z,3.40
2019-01-28T11:12:28.618Z,3.50
2019-01-28T11:14:55.416Z,3.40
2019-01-28T11:17:22.316Z,3.40
2019-01-28T11:19:49.503Z,3.50
2019-01-28T11:22:16.642Z,3.40
2019-01-28T11:24:44.619Z,3.30
2019-01-28T11:27:11.459Z,3.20
2019-01-28T11:29:39.062Z,3.30
2019-01-28T11:32:06.111Z,3.30
2019-01-28T11:34:33.302Z,3.40
2019-01-28T11:37:00.490Z,3.40
2019-01-28T11:39:27.519Z,3.40
2019-01-28T11:41:54.671Z,3.50
2019-01-28T11:44:21.569Z,3.40
2019-01-28T11:46:48.663Z,3.40
2019-01-28T11:49:15.854Z,3.50
2019-01-28T11:51:42.967Z,3.50
2019-01-28T11:54:09.954Z,3.60
2019-01-28T11:56:36.960Z,3.50
2019-01-28T11:59:04.109Z,3.40
2019-01-28T12:01:31.567Z,3.40
2019-01-28T12:03:58.417Z,3.40
2019-01-28T12:06:25.253Z,3.40
2019-01-28T12:08:52.096Z,3.40
2019-01-28T12:11:18.940Z,3.60
2019-01-28T12:13:45.784Z,3.70
2019-01-28T12:16:12.934Z,3.60
2019-01-28T12:18:40.084Z,3.60
2019-01-28T12:21:07.541Z,3.60
2019-01-28T12:23:34.994Z,3.60
2019-01-28T12:26:02.457Z,3.60
2019-01-28T12:28:29.608Z,3.60
2019-01-28T12:30:56.453Z,3.60
2019-01-28T12:33:23.294Z,3.60
2019-01-28T12:35:50.178Z,3.60
2019-01-28T12:38:16.982Z,3.60
2019-01-28T12:40:43.825Z,3.70
2019-01-28T12:43:10.976Z,3.70
2019-01-28T12:45:37.818Z,3.60
2019-01-28T12:48:05.019Z,3.60
2019-01-28T12:50:32.120Z,3.70
2019-01-28T12:52:58.968Z,3.70
2019-01-28T12:55:26.345Z,3.60
2019-01-28T12:57:53.262Z,3.60
2019-01-28T13:00:28.402Z,3.50
2019-01-28T13:02:55.552Z,3.50
2019-01-28T13:05:23.498Z,3.70
2019-01-28T13:07:50.467Z,3.70
2019-01-28T13:10:19.655Z,3.60
2019-01-28T13:12:46.612Z,3.60
2019-01-28T13:15:25.147Z,3.50
2019-01-28T13:17:52.586Z,3.40
2019-01-28T13:20:19.737Z,3.40
2019-01-28T13:22:46.623Z,3.30
2019-01-28T13:25:18.270Z,3.20
2019-01-28T13:27:45.534Z,3.30
2019-01-28T13:30:15.986Z,3.30
2019-01-28T13:32:42.827Z,3.20
2019-01-28T13:35:10.012Z,3.20
2019-01-28T13:37:36.899Z,3.20
2019-01-28T13:40:07.385Z,3.30
2019-01-28T13:42:34.229Z,3.20
2019-01-28T13:45:01.072Z,3.20
2019-01-28T13:47:27.916Z,3.20
2019-01-28T13:49:55.065Z,3.30
2019-01-28T13:52:21.913Z,3.20
2019-01-28T13:54:49.061Z,3.20
2019-01-28T13:57:15.905Z,3.20
2019-01-28T13:59:42.746Z,3.20
2019-01-28T14:02:09.898Z,3.10
2019-01-28T14:04:36.745Z,3.20
2019-01-28T14:07:03.729Z,3.20
2019-01-28T14:09:30.735Z,3.20
2019-01-28T14:11:57.577Z,3.20
2019-01-28T14:14:24.728Z,3.20
2019-01-28T14:16:51.571Z,3.10
2019-01-28T14:19:18.721Z,3.20
2019-01-28T14:21:45.606Z,3.10
2019-01-28T14:24:12.407Z,3.10
2019-01-28T14:26:39.252Z,3.10
2019-01-28T14:29:06.135Z,3.10
2019-01-28T14:31:32.937Z,3.10
2019-01-28T14:33:59.801Z,3.10
2019-01-28T14:36:26.756Z,3.10
2019-01-28T14:38:53.776Z,3.10
2019-01-28T14:41:20.618Z,3.10
2019-01-28T14:43:47.770Z,3.10
2019-01-28T14:46:14.612Z,3.10
2019-01-28T14:48:48.766Z,3.10
2019-01-28T14:51:10.144Z,3.20
2019-01-28T14:53:37.292Z,3.20
2019-01-28T14:56:04.642Z,3.10
2019-01-28T14:58:31.594Z,3.10
2019-01-28T15:00:58.745Z,3.10
2019-01-28T15:03:25.897Z,3.10
2019-01-28T15:05:53.045Z,3.00
2019-01-28T15:08:19.889Z,3.10
2019-01-28T15:10:46.731Z,3.10
2019-01-28T15:13:13.883Z,3.00
2019-01-28T15:15:40.728Z,3.10
2019-01-28T15:18:09.721Z,3.10
2019-01-28T15:20:36.869Z,3.10
2019-01-28T15:23:03.862Z,3.00
2019-01-28T15:25:30.863Z,3.10
2019-01-28T15:27:57.709Z,3.10
2019-01-28T15:30:27.314Z,3.20
2019-01-28T15:32:56.049Z,3.20
2019-01-28T15:35:23.155Z,3.20
2019-01-28T15:37:50.303Z,3.30
2019-01-28T15:40:25.946Z,3.20
2019-01-28T15:42:52.897Z,3.20
2019-01-28T15:45:22.214Z,3.20
2019-01-28T15:47:49.041Z,3.20
2019-01-28T15:50:17.031Z,3.10
2019-01-28T15:52:43.957Z,3.10
2019-01-28T15:55:20.324Z,3.10
2019-01-28T15:57:47.781Z,3.10
2019-01-28T16:00:21.078Z,3.10
2019-01-28T16:02:48.228Z,3.10
2019-01-28T16:05:15.071Z,3.10
2019-01-28T16:07:41.914Z,3.10
2019-01-28T16:10:14.877Z,3.10
2019-01-28T16:12:41.745Z,3.00
2019-01-28T16:15:23.947Z,2.90
2019-01-28T16:17:50.790Z,2.90
2019-01-28T16:20:18.668Z,2.90
2019-01-28T16:22:46.320Z,3.00
2019-01-28T16:25:13.472Z,3.00
2019-01-28T16:27:40.621Z,3.00
2019-01-28T16:30:20.060Z,3.00
2019-01-28T16:32:46.903Z,3.00
2019-01-28T16:35:17.734Z,3.00
2019-01-28T16:37:44.893Z,2.90
2019-01-28T16:40:14.691Z,2.80
2019-01-28T16:42:41.650Z,2.80
2019-01-28T16:45:12.181Z,2.80
2019-01-28T16:47:39.023Z,2.80
2019-01-28T16:50:15.187Z,2.80
2019-01-28T16:52:42.232Z,2.90
2019-01-28T16:55:11.841Z,2.80
2019-01-28T16:57:38.683Z,2.80
2019-01-28T17:00:15.051Z,2.90
2019-01-28T17:02:41.894Z,2.80
2019-01-28T17:05:11.043Z,2.90
2019-01-28T17:07:38.038Z,2.90
2019-01-28T17:10:08.302Z,2.90
2019-01-28T17:12:35.103Z,3.00
2019-01-28T17:15:02.254Z,3.00
2019-01-28T17:17:29.105Z,2.90
2019-01-28T17:19:56.249Z,2.90
2019-01-28T17:22:23.399Z,2.90
2019-01-28T17:24:50.243Z,2.90
2019-01-28T17:27:17.126Z,2.80
2019-01-28T17:29:43.930Z,2.80
2019-01-28T17:32:10.771Z,2.80
2019-01-28T17:34:37.923Z,2.80
2019-01-28T17:37:05.072Z,2.80
2019-01-28T17:39:31.916Z,2.80
2019-01-28T17:41:58.905Z,2.80
2019-01-28T17:44:25.910Z,2.80
2019-01-28T17:46:52.753Z,2.80
2019-01-28T17:49:19.539Z,2.70
2019-01-28T17:51:46.440Z,2.70
2019-01-28T17:54:13.592Z,2.70
2019-01-28T17:56:40.434Z,2.70
2019-01-28T17:59:07.277Z,2.70
2019-01-28T18:01:34.121Z,2.70
2019-01-28T18:04:01.004Z,2.60
2019-01-28T18:06:28.114Z,2.60
2019-01-28T18:08:54.961Z,2.60
2019-01-28T18:11:21.803Z,2.60
2019-01-28T18:13:48.951Z,2.60
2019-01-28T18:21:10.402Z,2.50
2019-01-28T18:23:39.089Z,2.40
2019-01-28T18:26:05.934Z,2.30
2019-01-28T18:28:32.775Z,2.30
2019-01-28T18:30:59.926Z,2.20
2019-01-28T18:33:26.770Z,2.20
2019-01-28T18:35:53.655Z,2.20
2019-01-28T18:38:20.763Z,2.20
2019-01-28T18:40:47.607Z,2.10
2019-01-28T18:43:14.756Z,2.10
2019-01-28T18:45:41.603Z,2.20
2019-01-28T18:48:09.058Z,2.20
2019-01-28T18:50:36.209Z,2.20
2019-01-28T18:53:03.562Z,2.30
2019-01-28T18:55:30.513Z,2.20
2019-01-28T18:57:57.353Z,2.20
2019-01-28T19:00:29.629Z,2.20
2019-01-28T19:02:56.876Z,2.20
2019-01-28T19:05:29.087Z,2.20
2019-01-28T19:08:00.742Z,2.20
2019-01-28T19:10:29.387Z,2.20
2019-01-28T19:12:58.073Z,2.20
2019-01-28T19:15:26.766Z,2.20
2019-01-28T19:17:58.211Z,2.20
2019-01-28T19:20:26.898Z,2.20
2019-01-28T19:22:54.048Z,2.20
2019-01-28T19:25:20.893Z,2.20
2019-01-28T19:27:48.041Z,2.10
2019-01-28T19:30:16.422Z,2.10
2019-01-28T19:32:43.689Z,1.90
2019-01-28T19:35:10.724Z,2.00
2019-01-28T19:37:37.565Z,2.00
2019-01-28T19:40:09.366Z,1.90
2019-01-28T19:42:36.381Z,1.90
2019-01-28T19:45:07.005Z,1.90
2019-01-28T19:47:33.861Z,1.80
2019-01-28T19:50:00.999Z,1.70
2019-01-28T19:52:27.842Z,1.70
2019-01-28T19:54:54.685Z,1.70
2019-01-28T19:57:21.836Z,1.80
2019-01-28T19:59:48.679Z,1.80
2019-01-28T20:02:15.522Z,1.80
2019-01-28T20:04:42.407Z,1.70
2019-01-28T20:07:09.209Z,1.80
2019-01-28T20:09:36.051Z,1.80
2019-01-28T20:12:02.896Z,1.90
2019-01-28T20:14:29.739Z,1.80
2019-01-28T20:16:56.582Z,1.90
2019-01-28T20:19:23.426Z,1.80
2019-01-28T20:21:50.289Z,1.70
2019-01-28T20:24:17.421Z,1.80
2019-01-28T20:26:44.322Z,1.80
2019-01-28T20:29:11.106Z,1.80
2019-01-28T20:31:37.951Z,1.70
2019-01-28T20:34:05.412Z,1.70
2019-01-28T20:36:32.255Z,1.80
2019-01-28T20:38:59.096Z,1.80
2019-01-28T20:41:26.246Z,1.80
2019-01-28T20:43:53.088Z,1.80
2019-01-28T20:46:20.242Z,1.70
2019-01-28T20:48:47.558Z,1.70
2019-01-28T20:51:15.955Z,1.70
2019-01-28T20:53:43.650Z,1.60
2019-01-28T20:56:10.456Z,1.70
2019-01-28T20:58:37.242Z,1.70
2019-01-28T21:01:04.062Z,1.60
2019-01-28T21:03:31.225Z,1.60
2019-01-28T21:05:58.070Z,1.70
2019-01-28T21:08:25.309Z,1.70
2019-01-28T21:10:52.242Z,1.70
2019-01-28T21:13:19.815Z,1.70
2019-01-28T21:15:46.673Z,1.80
2019-01-28T21:18:13.812Z,1.90
2019-01-28T21:20:40.695Z,1.90
2019-01-28T21:23:07.582Z,2.00
2019-01-28T21:25:34.646Z,2.00
2019-01-28T21:28:01.796Z,2.00
2019-01-28T21:30:33.249Z,2.10
2019-01-28T21:33:00.397Z,2.10
2019-01-28T21:35:32.464Z,2.10
2019-01-28T21:38:01.225Z,2.10
2019-01-28T21:40:28.301Z,2.20
2019-01-28T21:42:55.761Z,2.20
2019-01-28T21:45:22.601Z,2.30
2019-01-28T21:47:55.541Z,2.30
2019-01-28T21:50:24.431Z,2.20
2019-01-28T21:52:51.733Z,2.20
2019-01-28T21:55:18.885Z,2.20
2019-01-28T21:57:45.727Z,2.20
2019-01-28T22:00:14.455Z,2.20
2019-01-28T22:02:41.564Z,2.10
2019-01-28T22:05:08.918Z,2.10
2019-01-28T22:07:35.865Z,2.00
2019-01-28T22:10:06.395Z,2.00
2019-01-28T22:12:33.238Z,1.90
2019-01-28T22:15:00.166Z,1.90
2019-01-28T22:17:27.232Z,1.70
2019-01-28T22:19:54.255Z,1.50
2019-01-28T22:22:21.229Z,1.50
2019-01-28T22:24:48.069Z,1.40
2019-01-28T22:27:14.948Z,1.50
2019-01-28T22:29:42.064Z,1.50
2019-01-28T22:32:08.907Z,1.50
2019-01-28T22:34:35.749Z,1.30
2019-01-28T22:37:02.900Z,1.30
2019-01-28T22:39:29.743Z,1.40
2019-01-28T22:41:56.589Z,1.40
2019-01-28T22:44:23.741Z,1.40
2019-01-28T22:46:50.581Z,1.60
2019-01-28T22:49:17.465Z,1.60
2019-01-28T22:51:44.268Z,1.60
2019-01-28T22:54:11.110Z,1.60
2019-01-28T22:56:37.984Z,1.70
2019-01-28T22:59:04.798Z,1.80
2019-01-28T23:01:32.755Z,1.80
2019-01-28T23:03:59.718Z,1.70
2019-01-28T23:06:26.494Z,1.80
2019-01-28T23:08:53.400Z,1.70
2019-01-28T23:11:20.549Z,1.70
2019-01-28T23:13:47.396Z,1.70
2019-01-28T23:16:14.587Z,1.70
2019-01-28T23:18:41.386Z,1.60
2019-01-28T23:21:08.540Z,1.70
2019-01-28T23:23:35.688Z,1.60
2019-01-28T23:26:02.531Z,1.60
2019-01-28T23:28:29.375Z,1.60
2019-01-28T23:30:56.525Z,1.70
2019-01-28T23:33:23.368Z,1.50
2019-01-28T23:35:50.258Z,1.50
2019-01-28T23:38:17.054Z,1.40
2019-01-28T23:40:43.899Z,1.30
2019-01-28T23:43:10.743Z,1.10
2019-01-28T23:45:39.120Z,1.00
2019-01-28T23:48:05.965Z,1.00
2019-01-28T23:50:33.114Z,1.10
2019-01-28T23:52:59.958Z,1.00
2019-01-28T23:55:26.705Z,1.20
2019-01-28T23:57:56.928Z,1.20
